createdAt,value
2022-12-11T00:01:15.107Z,47.35
2022-12-11T00:03:43.022Z,49.75
2022-12-11T00:06:13.632Z,49.10
2022-12-11T00:08:42.786Z,49.85
2022-12-11T00:11:13.648Z,50.90
2022-12-11T00:13:41.315Z,46.58
2022-12-11T00:16:10.059Z,48.88
2022-12-11T00:18:38.047Z,47.80
2022-12-11T00:21:09.879Z,48.03
2022-12-11T00:23:38.614Z,45.35
2022-12-11T00:26:13.556Z,48.40
2022-12-11T00:28:41.925Z,44.53
2022-12-11T00:31:14.217Z,45.78
2022-12-11T00:33:44.070Z,44.83
2022-12-11T00:36:17.586Z,43.10
2022-12-11T00:38:45.251Z,45.85
2022-12-11T00:41:12.847Z,45.53
2022-12-11T00:43:40.736Z,47.65
2022-12-11T00:46:08.607Z,52.03
2022-12-11T00:48:36.439Z,47.85
2022-12-11T00:51:05.305Z,48.13
2022-12-11T00:53:33.403Z,48.33
2022-12-11T00:56:01.090Z,49.08
2022-12-11T00:58:29.244Z,45.72
2022-12-11T01:01:05.817Z,44.42
2022-12-11T01:03:33.722Z,46.65
2022-12-11T01:06:01.830Z,47.20
2022-12-11T01:08:32.715Z,46.85
2022-12-11T01:11:06.499Z,48.95
2022-12-11T01:13:34.297Z,45.78
2022-12-11T01:16:15.953Z,46.38
2022-12-11T01:18:44.411Z,47.42
2022-12-11T01:21:14.054Z,45.72
2022-12-11T01:23:42.362Z,41.80
2022-12-11T01:26:15.478Z,46.53
2022-12-11T01:28:43.642Z,45.45
2022-12-11T01:31:16.901Z,42.45
2022-12-11T01:33:45.240Z,42.42
2022-12-11T01:36:16.175Z,42.60
2022-12-11T01:38:44.615Z,40.92
2022-12-11T01:41:13.352Z,42.78
2022-12-11T01:44:06.014Z,45.58
2022-12-11T01:46:36.288Z,49.58
2022-12-11T01:49:09.272Z,45.97
2022-12-11T01:51:42.797Z,47.83
2022-12-11T01:54:14.547Z,46.17
2022-12-11T01:56:45.372Z,44.80
2022-12-11T01:59:17.886Z,46.85
2022-12-11T02:02:08.924Z,46.17
2022-12-11T02:04:39.648Z,46.78
2022-12-11T02:07:07.350Z,47.05
2022-12-11T02:09:37.713Z,47.40
2022-12-11T02:12:18.039Z,46.65
2022-12-11T02:14:51.734Z,48.00
2022-12-11T02:17:53.475Z,46.58
2022-12-11T02:20:28.377Z,37.83
2022-12-11T02:23:02.006Z,37.55
2022-12-11T02:26:05.384Z,34.92
2022-12-11T02:28:39.128Z,36.42
2022-12-11T02:34:22.807Z,36.80
2022-12-11T02:36:59.504Z,32.72
2022-12-11T02:39:28.683Z,33.13
2022-12-11T02:41:56.906Z,34.35
2022-12-11T02:44:27.781Z,33.85
2022-12-11T02:46:56.349Z,32.60
2022-12-11T02:49:25.160Z,31.55
2022-12-11T02:51:54.932Z,35.58
2022-12-11T02:54:30.499Z,30.70
2022-12-11T02:57:22.743Z,33.10
2022-12-11T02:59:50.900Z,30.15
2022-12-11T03:02:18.984Z,28.63
2022-12-11T03:04:47.724Z,26.90
2022-12-11T03:07:23.450Z,29.48
2022-12-11T03:09:51.720Z,30.10
2022-12-11T03:12:24.476Z,28.48
2022-12-11T03:14:52.626Z,30.38
2022-12-11T03:17:31.187Z,28.45
2022-12-11T03:20:30.531Z,27.33
2022-12-11T03:23:13.299Z,30.83
2022-12-11T03:26:06.347Z,31.80
2022-12-11T03:28:40.585Z,30.73
2022-12-11T03:31:13.372Z,27.40
2022-12-11T03:33:46.433Z,29.13
2022-12-11T03:36:21.649Z,27.43
2022-12-11T03:38:55.344Z,28.00
2022-12-11T03:43:56.475Z,25.45
2022-12-11T03:46:31.307Z,27.90
2022-12-11T03:49:04.062Z,24.58
2022-12-11T03:51:34.496Z,22.42
2022-12-11T03:54:02.819Z,21.25
2022-12-11T03:56:34.329Z,18.02
2022-12-11T03:59:03.053Z,16.75
2022-12-11T04:01:30.896Z,15.65
2022-12-11T04:03:58.694Z,13.75
2022-12-11T04:06:26.423Z,7.85
2022-12-11T04:08:54.001Z,7.03
2022-12-11T04:11:34.921Z,7.72
2022-12-11T04:14:33.398Z,4.22
2022-12-11T04:17:02.013Z,3.60
2022-12-11T04:19:48.461Z,2.97
2022-12-11T04:22:27.040Z,3.05
2022-12-11T04:24:55.546Z,2.90
2022-12-11T04:27:41.585Z,2.63
2022-12-11T04:30:13.918Z,3.03
2022-12-11T04:32:41.539Z,2.67
2022-12-11T04:35:10.982Z,1.77
2022-12-11T04:37:39.857Z,2.20
2022-12-11T04:40:11.239Z,1.63
2022-12-11T04:42:38.940Z,2.75
2022-12-11T04:45:08.452Z,1.70
2022-12-11T04:47:37.328Z,3.72
2022-12-11T04:50:06.460Z,3.33
2022-12-11T04:52:34.502Z,4.53
2022-12-11T04:55:05.226Z,3.20
2022-12-11T04:57:34.199Z,4.00
2022-12-11T05:00:02.232Z,1.55
2022-12-11T05:02:29.816Z,1.45
2022-12-11T05:04:57.469Z,1.35
2022-12-11T05:07:25.089Z,1.20
2022-12-11T05:09:52.889Z,1.73
2022-12-11T05:12:20.555Z,1.98
2022-12-11T05:14:52.674Z,1.30
2022-12-11T05:17:21.863Z,1.20
2022-12-11T05:19:51.045Z,1.42
2022-12-11T05:22:19.297Z,4.13
2022-12-11T05:24:47.007Z,1.63
2022-12-11T05:27:15.053Z,2.33
2022-12-11T05:29:42.798Z,1.83
2022-12-11T05:32:10.489Z,1.63
2022-12-11T05:34:38.261Z,1.38
2022-12-11T05:37:05.914Z,1.50
2022-12-11T05:39:33.498Z,2.72
2022-12-11T05:42:03.652Z,1.58
2022-12-11T05:44:31.618Z,1.50
2022-12-11T05:46:59.433Z,1.88
2022-12-11T05:49:30.824Z,1.67
2022-12-11T05:51:58.961Z,1.95
2022-12-11T05:54:26.642Z,1.50
2022-12-11T05:56:54.704Z,1.48
2022-12-11T05:59:22.839Z,1.40
2022-12-11T06:01:50.658Z,1.42
2022-12-11T06:04:18.512Z,1.95
2022-12-11T06:06:46.236Z,1.58
2022-12-11T06:09:16.482Z,1.50
2022-12-11T06:11:44.240Z,3.22
2022-12-11T06:14:12.266Z,2.15
2022-12-11T06:16:40.070Z,1.77
2022-12-11T06:19:13.033Z,4.25
2022-12-11T06:21:40.687Z,3.23
2022-12-11T06:24:11.918Z,6.20
2022-12-11T06:26:40.066Z,3.00
2022-12-11T06:29:12.647Z,2.08
2022-12-11T06:31:40.946Z,2.03
2022-12-11T06:34:09.269Z,2.83
2022-12-11T06:36:36.983Z,0.82
2022-12-11T06:39:04.729Z,1.50
2022-12-11T06:41:32.540Z,1.20
2022-12-11T06:44:00.144Z,2.67
2022-12-11T06:46:27.832Z,2.60
2022-12-11T06:48:56.029Z,7.63
2022-12-11T06:51:24.090Z,3.42
2022-12-11T06:53:56.356Z,2.17
2022-12-11T06:56:25.480Z,1.60
2022-12-11T06:58:53.349Z,2.63
2022-12-11T07:01:26.520Z,1.55
2022-12-11T07:03:58.644Z,1.17
2022-12-11T07:06:28.785Z,4.35
2022-12-11T07:08:56.744Z,2.00
2022-12-11T07:11:24.397Z,3.65
2022-12-11T07:13:52.337Z,1.80
2022-12-11T07:16:20.223Z,1.80
2022-12-11T07:18:53.339Z,1.40
2022-12-11T07:21:21.442Z,3.33
2022-12-11T07:23:50.309Z,3.55
2022-12-11T07:26:20.558Z,1.90
2022-12-11T07:28:49.032Z,2.65
2022-12-11T07:31:20.464Z,1.75
2022-12-11T07:33:48.345Z,1.80
2022-12-11T07:36:16.323Z,1.20
2022-12-11T07:38:44.494Z,2.10
2022-12-11T07:41:15.327Z,1.15
2022-12-11T07:43:44.043Z,0.80
2022-12-11T07:46:15.021Z,1.10
2022-12-11T07:48:46.002Z,2.00
2022-12-11T07:51:20.336Z,2.95
2022-12-11T07:53:50.000Z,1.67
2022-12-11T07:56:19.515Z,1.15
2022-12-11T07:58:47.712Z,0.90
2022-12-11T08:01:23.895Z,1.75
2022-12-11T08:03:52.317Z,1.35
2022-12-11T08:06:26.604Z,1.63
2022-12-11T08:08:56.461Z,1.73
2022-12-11T08:11:24.987Z,1.52
2022-12-11T08:13:53.156Z,1.13
2022-12-11T08:16:21.290Z,1.75
2022-12-11T08:18:49.262Z,1.42
2022-12-11T08:21:20.561Z,1.95
2022-12-11T08:23:48.846Z,1.80
2022-12-11T08:26:20.009Z,2.08
2022-12-11T08:28:47.760Z,1.45
2022-12-11T08:31:16.821Z,1.33
2022-12-11T08:33:45.300Z,1.40
2022-12-11T08:36:15.289Z,2.03
2022-12-11T08:38:43.138Z,2.22
2022-12-11T08:41:16.967Z,1.75
2022-12-11T08:43:45.071Z,2.03
2022-12-11T08:46:13.594Z,1.73
2022-12-11T08:48:42.870Z,1.90
2022-12-11T08:51:16.156Z,2.08
2022-12-11T08:53:44.213Z,2.30
2022-12-11T08:56:15.416Z,2.30
2022-12-11T08:58:44.766Z,1.70
2022-12-11T09:01:15.811Z,2.10
2022-12-11T09:03:43.929Z,1.88
2022-12-11T09:06:15.449Z,1.80
2022-12-11T09:08:51.675Z,2.00
2022-12-11T09:11:23.408Z,2.40
2022-12-11T09:13:51.376Z,1.88
2022-12-11T09:16:23.393Z,2.05
2022-12-11T09:18:52.867Z,2.30
2022-12-11T09:21:23.223Z,1.88
2022-12-11T09:23:58.321Z,2.40
2022-12-11T09:26:27.179Z,3.90
2022-12-11T09:28:55.265Z,2.78
2022-12-11T09:31:29.376Z,2.45
2022-12-11T09:34:08.438Z,3.22
2022-12-11T09:36:39.517Z,2.92
2022-12-11T09:39:08.774Z,3.53
2022-12-11T09:41:54.091Z,3.55
2022-12-11T09:44:42.540Z,3.22
2022-12-11T09:47:33.956Z,1.98
2022-12-11T09:50:04.696Z,2.72
2022-12-11T09:52:38.194Z,2.72
2022-12-11T09:55:26.155Z,3.45
2022-12-11T09:57:54.912Z,4.18
2022-12-11T10:00:45.926Z,3.75
2022-12-11T10:03:38.600Z,3.25
2022-12-11T10:06:15.221Z,2.95
2022-12-11T10:09:04.788Z,3.95
2022-12-11T10:11:40.472Z,3.90
2022-12-11T10:14:20.797Z,6.32
2022-12-11T10:16:57.838Z,3.80
2022-12-11T10:19:29.187Z,4.07
2022-12-11T10:21:59.293Z,4.28
2022-12-11T10:25:13.256Z,4.78
2022-12-11T10:27:41.462Z,4.77
2022-12-11T10:30:20.309Z,4.30
2022-12-11T10:33:21.696Z,4.72
2022-12-11T10:35:54.841Z,4.55
2022-12-11T10:38:34.616Z,4.60
2022-12-11T10:41:14.094Z,4.60
2022-12-11T10:43:47.003Z,5.10
2022-12-11T10:46:22.489Z,3.57
2022-12-11T10:48:58.276Z,3.45
2022-12-11T10:51:34.820Z,4.22
2022-12-11T10:54:24.896Z,3.60
2022-12-11T10:56:54.349Z,4.75
2022-12-11T10:59:28.131Z,3.50
2022-12-11T11:04:37.420Z,3.80
2022-12-11T11:12:15.080Z,3.28
2022-12-11T11:14:43.472Z,3.85
2022-12-11T11:17:16.454Z,4.05
2022-12-11T11:19:48.567Z,4.30
2022-12-11T11:22:19.617Z,4.47
2022-12-11T11:24:53.117Z,10.73
2022-12-11T11:27:37.120Z,9.57
2022-12-11T11:30:16.908Z,5.30
2022-12-11T11:32:44.834Z,7.57
2022-12-11T11:35:12.923Z,5.43
2022-12-11T11:37:45.364Z,9.00
2022-12-11T11:40:27.481Z,6.50
2022-12-11T11:43:29.273Z,8.18
2022-12-11T11:46:09.035Z,4.82
2022-12-11T11:48:46.144Z,5.00
2022-12-11T11:51:26.886Z,5.18
2022-12-11T11:54:00.376Z,4.43
2022-12-11T11:56:37.719Z,4.55
2022-12-11T11:59:13.757Z,4.68
2022-12-11T12:01:43.460Z,6.78
2022-12-11T12:04:11.861Z,5.70
2022-12-11T12:06:51.548Z,4.47
2022-12-11T12:09:29.470Z,4.85
2022-12-11T12:12:14.946Z,6.43
2022-12-11T12:14:52.628Z,5.18
2022-12-11T12:17:32.547Z,4.57
2022-12-11T12:20:00.122Z,5.47
2022-12-11T12:22:46.884Z,4.18
2022-12-11T12:25:39.770Z,3.70
2022-12-11T12:28:38.263Z,4.78
2022-12-11T12:31:25.061Z,6.47
2022-12-11T12:34:14.641Z,6.30
2022-12-11T12:37:11.990Z,5.63
2022-12-11T12:39:58.207Z,4.47
2022-12-11T12:42:36.368Z,4.93
2022-12-11T12:45:27.541Z,4.75
2022-12-11T12:47:55.218Z,7.13
2022-12-11T12:50:26.489Z,5.35
2022-12-11T12:52:56.133Z,5.00
2022-12-11T12:55:28.876Z,6.20
2022-12-11T12:58:00.432Z,6.05
2022-12-11T13:00:29.595Z,5.88
2022-12-11T13:02:58.680Z,6.25
2022-12-11T13:05:32.954Z,5.85
2022-12-11T13:08:05.536Z,5.63
2022-12-11T13:10:41.856Z,4.40
2022-12-11T13:13:33.332Z,4.32
2022-12-11T13:16:09.675Z,4.45
2022-12-11T13:18:40.052Z,5.40
2022-12-11T13:21:33.869Z,5.07
2022-12-11T13:24:14.031Z,4.57
2022-12-11T13:26:43.355Z,4.47
2022-12-11T13:29:40.690Z,4.57
2022-12-11T13:32:08.454Z,6.03
2022-12-11T13:34:39.746Z,3.20
2022-12-11T13:37:26.729Z,2.35
2022-12-11T13:39:55.811Z,3.08
2022-12-11T13:42:34.690Z,3.75
2022-12-11T13:45:05.551Z,4.13
2022-12-11T13:47:35.621Z,3.60
2022-12-11T13:50:29.746Z,2.67
2022-12-11T13:53:00.442Z,2.40
2022-12-11T13:55:34.604Z,2.80
2022-12-11T13:58:02.801Z,3.20
2022-12-11T14:00:33.047Z,3.33
2022-12-11T14:03:07.571Z,4.15
2022-12-11T14:05:36.588Z,2.67
2022-12-11T14:08:10.510Z,2.30
2022-12-11T14:10:40.376Z,2.10
2022-12-11T14:13:24.153Z,3.25
2022-12-11T14:15:53.720Z,3.22
2022-12-11T14:18:24.225Z,3.53
2022-12-11T14:20:58.136Z,3.15
2022-12-11T14:23:34.199Z,3.00
2022-12-11T14:26:01.926Z,3.42
2022-12-11T14:28:37.433Z,3.15
2022-12-11T14:31:07.068Z,3.28
2022-12-11T14:33:43.032Z,4.43
2022-12-11T14:36:15.587Z,4.05
2022-12-11T14:38:49.818Z,3.38
2022-12-11T14:41:23.593Z,3.70
2022-12-11T14:43:57.414Z,5.88
2022-12-11T14:46:36.945Z,4.78
2022-12-11T14:49:19.385Z,7.13
2022-12-11T14:51:48.446Z,8.90
2022-12-11T14:54:34.168Z,6.85
2022-12-11T14:57:06.713Z,6.55
2022-12-11T14:59:47.271Z,5.20
2022-12-11T15:02:30.118Z,4.70
2022-12-11T15:05:16.340Z,4.32
2022-12-11T15:07:59.744Z,4.22
2022-12-11T15:10:42.395Z,3.92
2022-12-11T15:13:10.527Z,4.78
2022-12-11T15:15:46.034Z,8.35
2022-12-11T15:18:24.613Z,4.70
2022-12-11T15:21:10.004Z,8.18
2022-12-11T15:23:59.128Z,7.32
2022-12-11T15:26:48.689Z,4.97
2022-12-11T15:29:35.386Z,5.82
2022-12-11T15:32:09.321Z,6.43
2022-12-11T15:34:47.964Z,5.43
2022-12-11T15:37:23.931Z,5.70
2022-12-11T15:39:52.838Z,4.13
2022-12-11T15:42:32.183Z,5.22
2022-12-11T15:45:00.715Z,5.55
2022-12-11T15:47:31.999Z,4.60
2022-12-11T15:50:14.477Z,4.70
2022-12-11T15:52:43.524Z,5.07
2022-12-11T15:55:12.446Z,5.68
2022-12-11T15:57:47.098Z,4.80
2022-12-11T16:00:17.093Z,5.28
2022-12-11T16:02:46.218Z,4.50
2022-12-11T16:05:14.665Z,4.55
2022-12-11T16:07:42.946Z,5.38
2022-12-11T16:10:21.112Z,5.95
2022-12-11T16:12:49.685Z,4.70
2022-12-11T16:15:23.086Z,5.65
2022-12-11T16:18:03.587Z,5.72
2022-12-11T16:20:31.579Z,5.65
2022-12-11T16:23:00.037Z,5.45
2022-12-11T16:25:28.237Z,6.13
2022-12-11T16:27:58.064Z,6.35
2022-12-11T16:30:27.325Z,5.40
2022-12-11T16:32:55.619Z,5.70
2022-12-11T16:35:24.217Z,6.75
2022-12-11T16:37:53.356Z,6.80
2022-12-11T16:40:22.269Z,6.45
2022-12-11T16:42:51.350Z,6.72
2022-12-11T16:45:22.238Z,6.80
2022-12-11T16:47:50.072Z,7.65
2022-12-11T16:50:18.172Z,8.80
2022-12-11T16:52:45.871Z,7.20
2022-12-11T16:55:14.859Z,8.30
2022-12-11T16:57:42.671Z,8.63
2022-12-11T17:00:15.499Z,8.20
2022-12-11T17:02:43.519Z,8.45
2022-12-11T17:05:11.369Z,6.78
2022-12-11T17:07:39.299Z,7.20
2022-12-11T17:10:07.931Z,6.65
2022-12-11T17:12:35.642Z,6.40
2022-12-11T17:15:03.961Z,7.20
2022-12-11T17:17:32.469Z,8.80
2022-12-11T17:20:00.408Z,6.20
2022-12-11T17:22:28.699Z,6.00
2022-12-11T17:24:56.659Z,7.30
2022-12-11T17:27:24.327Z,5.88
2022-12-11T17:29:52.369Z,6.90
2022-12-11T17:32:20.126Z,6.20
2022-12-11T17:34:50.503Z,6.03
2022-12-11T17:37:18.745Z,6.63
2022-12-11T17:39:47.594Z,7.45
2022-12-11T17:42:15.238Z,7.30
2022-12-11T17:44:45.934Z,7.32
2022-12-11T17:47:14.218Z,7.20
2022-12-11T17:49:42.372Z,7.47
2022-12-11T17:52:10.284Z,6.93
2022-12-11T17:54:39.357Z,9.20
2022-12-11T17:57:06.996Z,8.85
2022-12-11T17:59:34.731Z,8.40
2022-12-11T18:02:02.823Z,8.52
2022-12-11T18:04:30.511Z,8.20
2022-12-11T18:06:58.117Z,8.10
2022-12-11T18:09:26.333Z,8.68
2022-12-11T18:11:53.974Z,8.35
2022-12-11T18:14:21.957Z,9.93
2022-12-11T18:16:50.526Z,10.00
2022-12-11T18:19:19.575Z,9.63
2022-12-11T18:21:47.225Z,9.68
2022-12-11T18:24:15.337Z,9.57
2022-12-11T18:26:43.010Z,7.57
2022-12-11T18:29:11.474Z,9.90
2022-12-11T18:31:42.622Z,8.32
2022-12-11T18:34:11.674Z,8.25
2022-12-11T18:36:40.786Z,9.32
2022-12-11T18:39:09.237Z,8.68
2022-12-11T18:41:37.025Z,7.30
2022-12-11T18:44:09.503Z,8.82
2022-12-11T18:46:39.595Z,8.02
2022-12-11T18:49:07.785Z,8.35
2022-12-11T18:51:36.031Z,8.50
2022-12-11T18:54:04.224Z,7.95
2022-12-11T18:56:32.049Z,8.32
2022-12-11T18:59:00.161Z,8.27
2022-12-11T19:01:29.377Z,8.93
2022-12-11T19:04:03.609Z,9.38
2022-12-11T19:06:37.828Z,9.20
2022-12-11T19:09:07.496Z,9.05
2022-12-11T19:11:38.568Z,9.57
2022-12-11T19:14:07.453Z,10.30
2022-12-11T19:16:38.495Z,10.68
2022-12-11T19:19:11.394Z,9.65
2022-12-11T19:21:39.920Z,9.23
2022-12-11T19:24:11.719Z,10.45
2022-12-11T19:26:39.759Z,9.63
2022-12-11T19:29:08.309Z,9.00
2022-12-11T19:31:36.486Z,9.88
2022-12-11T19:34:04.141Z,10.05
2022-12-11T19:36:33.681Z,10.10
2022-12-11T19:39:02.529Z,9.75
2022-12-11T19:41:32.333Z,9.73
2022-12-11T19:44:00.546Z,8.98
2022-12-11T19:46:29.393Z,10.27
2022-12-11T19:48:59.057Z,11.95
2022-12-11T19:51:33.954Z,12.57
2022-12-11T19:54:03.146Z,13.20
2022-12-11T19:56:31.991Z,12.25
2022-12-11T19:59:02.007Z,12.05
2022-12-11T20:01:32.127Z,12.30
2022-12-11T20:04:02.966Z,11.15
2022-12-11T20:06:35.899Z,12.75
2022-12-11T20:09:06.539Z,12.13
2022-12-11T20:11:34.656Z,13.32
2022-12-11T20:14:02.442Z,12.57
2022-12-11T20:17:01.706Z,14.30
2022-12-11T20:19:18.262Z,12.98
2022-12-11T20:21:45.761Z,12.13
2022-12-11T20:24:13.691Z,12.48
2022-12-11T20:26:41.511Z,13.20
2022-12-11T20:29:09.210Z,13.77
2022-12-11T20:31:37.187Z,12.98
2022-12-11T20:34:06.274Z,13.32
2022-12-11T20:36:35.582Z,18.83
2022-12-11T20:39:05.051Z,15.52
2022-12-11T20:41:33.059Z,14.90
2022-12-11T20:44:01.381Z,14.50
2022-12-11T20:46:29.135Z,13.57
2022-12-11T20:49:00.726Z,14.13
2022-12-11T20:51:29.200Z,18.00
2022-12-11T20:53:59.505Z,18.00
2022-12-11T20:56:30.124Z,19.23
2022-12-11T20:58:59.539Z,17.65
2022-12-11T21:01:32.952Z,18.83
2022-12-11T21:04:01.290Z,19.00
2022-12-11T21:06:35.430Z,19.92
2022-12-11T21:09:07.003Z,16.98
2022-12-11T21:11:34.853Z,18.48
2022-12-11T21:14:03.489Z,20.35
2022-12-11T21:16:31.362Z,17.65
2022-12-11T21:18:59.464Z,19.52
2022-12-11T21:21:27.284Z,22.33
2022-12-11T21:23:54.969Z,17.77
2022-12-11T21:26:22.980Z,18.42
2022-12-11T21:28:52.107Z,18.25
2022-12-11T21:31:20.331Z,18.92
2022-12-11T21:33:48.696Z,19.67
2022-12-11T21:36:18.099Z,19.70
2022-12-11T21:38:46.786Z,17.90
2022-12-11T21:41:20.195Z,20.38
2022-12-11T21:45:06.984Z,18.10
2022-12-11T21:46:37.820Z,18.70
2022-12-11T21:49:06.157Z,18.98
2022-12-11T21:51:39.470Z,18.25
2022-12-11T21:54:13.465Z,18.25
2022-12-11T21:56:42.002Z,17.33
2022-12-11T21:59:09.622Z,18.17
2022-12-11T22:01:42.231Z,16.98
2022-12-11T22:04:11.947Z,18.00
2022-12-11T22:06:42.963Z,18.33
2022-12-11T22:09:12.632Z,16.77
2022-12-11T22:11:41.725Z,17.75
2022-12-11T22:14:15.528Z,19.40
2022-12-11T22:16:44.464Z,19.55
2022-12-11T22:19:12.574Z,18.17
2022-12-11T22:21:40.247Z,19.35
2022-12-11T22:24:08.391Z,19.08
2022-12-11T22:26:36.707Z,18.45
2022-12-11T22:29:04.712Z,17.83
2022-12-11T22:31:32.441Z,18.48
2022-12-11T22:34:03.091Z,19.40
2022-12-11T22:36:30.685Z,16.92
2022-12-11T22:39:00.140Z,16.65
2022-12-11T22:41:32.730Z,17.40
2022-12-11T22:44:00.605Z,19.48
2022-12-11T22:46:30.914Z,18.35
2022-12-11T22:48:59.138Z,17.15
2022-12-11T22:51:26.806Z,17.95
2022-12-11T22:53:55.001Z,19.58
2022-12-11T22:56:23.177Z,18.85
2022-12-11T22:58:51.317Z,18.10
2022-12-11T23:01:22.932Z,19.45
2022-12-11T23:03:53.298Z,19.45
2022-12-11T23:06:24.978Z,18.67
2022-12-11T23:08:55.152Z,19.38
2022-12-11T23:11:26.772Z,20.15
2022-12-11T23:13:56.100Z,20.27
2022-12-11T23:16:26.304Z,18.63
2022-12-11T23:18:55.901Z,19.55
2022-12-11T23:21:26.741Z,20.63
2022-12-11T23:23:55.699Z,20.05
2022-12-11T23:26:23.488Z,19.63
2022-12-11T23:28:52.824Z,20.38
2022-12-11T23:31:20.686Z,18.52
2022-12-11T23:33:48.449Z,18.67
2022-12-11T23:36:16.177Z,18.83
2022-12-11T23:38:47.181Z,18.88
2022-12-11T23:41:17.682Z,18.88
2022-12-11T23:43:45.747Z,19.02
2022-12-11T23:46:21.123Z,20.50
2022-12-11T23:48:49.351Z,19.42
2022-12-11T23:51:19.977Z,19.05
2022-12-11T23:53:48.474Z,20.52
2022-12-11T23:56:19.877Z,23.10
2022-12-11T23:58:48.005Z,20.05
